createdAt,value
2019-02-22T00:00:38.522Z,85.89
2019-02-22T00:03:08.938Z,85.88
2019-02-22T00:05:39.243Z,85.92
2019-02-22T00:08:09.694Z,85.92
2019-02-22T00:10:40.274Z,85.92
2019-02-22T00:13:10.604Z,85.91
2019-02-22T00:15:40.883Z,85.92
2019-02-22T00:18:11.176Z,85.93
2019-02-22T00:20:41.472Z,85.97
2019-02-22T00:23:11.692Z,85.97
2019-02-22T00:25:42.124Z,85.99
2019-02-22T00:28:12.341Z,85.98
2019-02-22T00:30:42.877Z,85.99
2019-02-22T00:33:13.122Z,85.99
2019-02-22T00:35:43.600Z,86.01
2019-02-22T00:38:14.181Z,86.02
2019-02-22T00:40:44.396Z,86.00
2019-02-22T00:43:14.603Z,85.99
2019-02-22T00:45:45.153Z,86.00
2019-02-22T00:48:15.499Z,86.06
2019-02-22T00:50:45.795Z,86.07
2019-02-22T00:53:17.233Z,86.05
2019-02-22T00:55:47.432Z,86.01
2019-02-22T00:58:17.645Z,85.98
2019-02-22T01:00:48.027Z,86.00
2019-02-22T01:03:18.106Z,86.01
2019-02-22T01:05:48.402Z,86.05
2019-02-22T01:08:18.623Z,86.06
2019-02-22T01:10:48.926Z,86.04
2019-02-22T01:13:19.286Z,86.06
2019-02-22T01:15:49.598Z,86.10
2019-02-22T01:18:19.805Z,86.04
2019-02-22T01:20:54.387Z,86.05
2019-02-22T01:23:22.080Z,86.01
2019-02-22T01:25:52.237Z,86.00
2019-02-22T01:28:22.526Z,86.00
2019-02-22T01:30:52.928Z,85.99
2019-02-22T01:41:22.112Z,86.09
2019-02-22T01:43:52.561Z,86.26
2019-02-22T01:46:22.788Z,86.18
2019-02-22T01:48:53.155Z,86.13
2019-02-22T01:51:23.619Z,86.07
2019-02-22T01:53:54.232Z,86.05
2019-02-22T01:56:24.583Z,86.04
2019-02-22T01:58:54.976Z,86.05
2019-02-22T02:01:25.319Z,86.00
2019-02-22T02:03:55.827Z,85.99
2019-02-22T02:06:26.241Z,85.95
2019-02-22T02:08:56.402Z,85.94
2019-02-22T02:11:26.576Z,85.98
2019-02-22T02:13:56.857Z,85.99
2019-02-22T02:16:27.275Z,85.96
2019-02-22T02:18:57.602Z,85.99
2019-02-22T02:21:28.005Z,85.96
2019-02-22T02:23:58.460Z,85.94
2019-02-22T02:26:29.012Z,86.00
2019-02-22T02:28:59.389Z,86.00
2019-02-22T02:31:29.670Z,85.99
2019-02-22T02:34:00.075Z,86.03
2019-02-22T02:36:30.322Z,86.06
2019-02-22T02:39:00.690Z,86.09
2019-02-22T02:41:31.197Z,86.06
2019-02-22T02:44:01.717Z,86.05
2019-02-22T02:46:32.054Z,86.08
2019-02-22T02:49:02.553Z,86.10
2019-02-22T02:51:32.954Z,86.11
2019-02-22T02:54:03.278Z,86.12
2019-02-22T02:56:33.625Z,86.20
2019-02-22T02:59:04.011Z,86.21
2019-02-22T03:01:34.536Z,86.24
2019-02-22T03:04:07.894Z,86.21
2019-02-22T03:06:43.723Z,86.16
2019-02-22T03:09:14.251Z,86.19
2019-02-22T03:11:44.653Z,86.26
2019-02-22T03:14:15.012Z,86.24
2019-02-22T03:16:45.160Z,86.26
2019-02-22T03:19:15.531Z,86.28
2019-02-22T03:21:45.843Z,86.25
2019-02-22T03:24:16.186Z,86.24
2019-02-22T03:26:46.404Z,86.26
2019-02-22T03:29:16.683Z,86.22
2019-02-22T03:31:46.912Z,86.20
2019-02-22T03:34:17.201Z,86.13
2019-02-22T03:36:47.571Z,86.08
2019-02-22T03:39:17.802Z,86.07
2019-02-22T03:41:48.181Z,86.06
2019-02-22T03:44:18.408Z,86.03
2019-02-22T03:46:48.657Z,85.95
2019-02-22T03:49:18.910Z,85.89
2019-02-22T03:51:49.169Z,85.83
2019-02-22T03:54:19.677Z,85.81
2019-02-22T03:56:50.222Z,85.76
2019-02-22T03:59:20.555Z,85.75
2019-02-22T04:01:50.874Z,85.74
2019-02-22T04:04:21.201Z,85.75
2019-02-22T04:06:51.618Z,85.76
2019-02-22T04:09:21.872Z,85.77
2019-02-22T04:11:52.234Z,85.78
2019-02-22T04:14:24.849Z,85.79
2019-02-22T04:16:55.274Z,85.77
2019-02-22T04:19:25.681Z,85.68
2019-02-22T04:21:59.477Z,85.67
2019-02-22T04:24:36.424Z,85.63
2019-02-22T04:27:06.974Z,85.63
2019-02-22T04:29:37.279Z,85.60
2019-02-22T04:32:07.835Z,85.59
2019-02-22T04:34:38.105Z,85.57
2019-02-22T04:37:08.679Z,85.55
2019-02-22T04:39:39.005Z,85.54
2019-02-22T04:42:09.615Z,85.48
2019-02-22T04:44:39.915Z,85.49
2019-02-22T04:47:10.257Z,85.48
2019-02-22T04:49:40.515Z,85.51
2019-02-22T04:52:10.959Z,85.48
2019-02-22T04:54:41.431Z,85.48
2019-02-22T04:57:11.967Z,85.47
2019-02-22T04:59:42.520Z,85.50
2019-02-22T05:02:12.811Z,85.54
2019-02-22T05:04:43.127Z,85.52
2019-02-22T05:07:13.515Z,85.51
2019-02-22T05:09:43.696Z,85.55
2019-02-22T05:12:14.017Z,85.60
2019-02-22T05:14:44.263Z,85.61
2019-02-22T05:17:14.550Z,85.62
2019-02-22T05:19:45.251Z,85.66
2019-02-22T05:22:15.792Z,85.66
2019-02-22T05:27:32.667Z,85.54
2019-02-22T05:30:03.255Z,85.53
2019-02-22T05:32:33.780Z,85.52
2019-02-22T05:35:04.370Z,85.47
2019-02-22T05:37:34.932Z,85.48
2019-02-22T05:42:45.615Z,85.33
2019-02-22T05:45:16.304Z,85.37
2019-02-22T05:47:47.041Z,85.35
2019-02-22T05:50:20.134Z,85.38
2019-02-22T05:52:50.897Z,85.35
2019-02-22T05:55:21.552Z,85.29
2019-02-22T05:57:52.249Z,85.29
2019-02-22T06:00:22.739Z,85.32
2019-02-22T06:02:53.408Z,84.67
2019-02-22T06:05:24.348Z,84.94
2019-02-22T06:07:54.757Z,85.07
2019-02-22T06:10:25.347Z,85.16
2019-02-22T06:12:56.154Z,85.25
2019-02-22T06:15:26.711Z,85.23
2019-02-22T06:17:57.256Z,85.22
2019-02-22T06:20:27.947Z,85.19
2019-02-22T06:22:58.628Z,85.17
2019-02-22T06:25:29.201Z,85.16
2019-02-22T06:27:59.754Z,85.17
2019-02-22T06:30:30.478Z,85.17
2019-02-22T06:33:01.037Z,85.20
2019-02-22T06:35:31.771Z,85.17
2019-02-22T06:38:02.584Z,85.16
2019-02-22T06:40:32.990Z,85.18
2019-02-22T06:43:03.202Z,85.18
2019-02-22T06:45:33.582Z,85.18
2019-02-22T06:48:03.942Z,85.21
2019-02-22T06:50:34.293Z,85.25
2019-02-22T06:53:04.463Z,85.30
2019-02-22T06:55:34.834Z,85.32
2019-02-22T06:58:05.431Z,85.31
2019-02-22T07:00:35.796Z,85.31
2019-02-22T07:03:07.187Z,85.33
2019-02-22T07:05:37.654Z,85.35
2019-02-22T07:08:07.976Z,85.32
2019-02-22T07:11:02.327Z,85.28
2019-02-22T07:13:32.687Z,85.26
2019-02-22T07:16:03.096Z,85.27
2019-02-22T07:18:33.519Z,85.22
2019-02-22T07:21:03.984Z,85.18
2019-02-22T07:23:34.179Z,85.08
2019-02-22T07:26:04.465Z,85.02
2019-02-22T07:28:34.825Z,85.02
2019-02-22T07:31:05.263Z,84.98
2019-02-22T07:33:35.585Z,84.93
2019-02-22T07:36:09.346Z,84.85
2019-02-22T07:38:39.623Z,84.83
2019-02-22T07:41:10.161Z,84.82
2019-02-22T07:43:40.486Z,84.85
2019-02-22T07:46:11.181Z,84.75
2019-02-22T07:48:41.465Z,84.68
2019-02-22T07:51:11.777Z,84.58
2019-02-22T07:53:41.994Z,84.57
2019-02-22T07:56:12.191Z,84.59
2019-02-22T07:58:42.476Z,84.58
2019-02-22T08:01:12.783Z,84.48
2019-02-22T08:03:42.998Z,84.42
2019-02-22T08:06:13.315Z,84.39
2019-02-22T08:08:43.607Z,84.31
2019-02-22T08:11:13.943Z,84.16
2019-02-22T08:13:44.253Z,83.98
2019-02-22T08:16:14.487Z,84.04
2019-02-22T08:18:44.731Z,84.13
2019-02-22T08:21:14.909Z,84.07
2019-02-22T08:23:45.103Z,83.92
2019-02-22T08:26:15.314Z,83.81
2019-02-22T08:28:45.677Z,83.67
2019-02-22T08:31:16.964Z,83.45
2019-02-22T08:33:47.196Z,83.47
2019-02-22T08:36:17.464Z,83.45
2019-02-22T08:38:48.114Z,83.45
2019-02-22T08:41:18.387Z,83.37
2019-02-22T08:43:48.634Z,83.28
2019-02-22T08:46:18.887Z,83.22
2019-02-22T08:48:49.196Z,83.16
2019-02-22T08:51:19.525Z,83.21
2019-02-22T08:53:49.714Z,83.11
2019-02-22T08:56:20.015Z,82.93
2019-02-22T08:58:50.274Z,82.78
2019-02-22T09:01:20.486Z,82.69
2019-02-22T09:03:51.316Z,82.59
2019-02-22T09:06:21.645Z,82.39
2019-02-22T09:08:51.944Z,82.25
2019-02-22T09:12:08.918Z,82.07
2019-02-22T09:14:39.121Z,82.01
2019-02-22T09:17:09.500Z,82.01
2019-02-22T09:19:39.853Z,81.93
2019-02-22T09:22:21.817Z,81.82
2019-02-22T09:24:42.234Z,81.66
2019-02-22T09:27:12.473Z,81.53
2019-02-22T09:29:42.779Z,81.47
2019-02-22T09:32:12.993Z,81.32
2019-02-22T09:34:45.942Z,81.12
2019-02-22T09:37:15.454Z,80.96
2019-02-22T09:39:45.777Z,80.74
2019-02-22T09:42:16.113Z,80.53
2019-02-22T09:44:48.041Z,80.34
2019-02-22T09:47:19.928Z,80.17
2019-02-22T09:49:50.436Z,79.96
2019-02-22T09:52:20.721Z,79.80
2019-02-22T09:54:51.076Z,79.49
2019-02-22T09:57:21.342Z,79.37
2019-02-22T09:59:51.730Z,79.21
2019-02-22T10:02:29.706Z,79.04
2019-02-22T10:05:00.006Z,78.92
2019-02-22T10:07:33.324Z,78.87
2019-02-22T10:10:07.258Z,78.56
2019-02-22T10:12:37.534Z,78.37
2019-02-22T10:15:08.007Z,78.07
2019-02-22T10:17:38.351Z,78.01
2019-02-22T10:20:08.937Z,77.74
2019-02-22T10:22:39.265Z,77.59
2019-02-22T10:25:09.610Z,77.29
2019-02-22T10:27:39.944Z,77.06
2019-02-22T10:30:10.343Z,76.79
2019-02-22T10:32:40.502Z,76.62
2019-02-22T10:35:10.915Z,76.57
2019-02-22T10:37:41.174Z,76.80
2019-02-22T10:40:11.455Z,76.79
2019-02-22T10:42:41.732Z,76.34
2019-02-22T10:45:14.540Z,76.08
2019-02-22T10:47:44.842Z,75.57
2019-02-22T10:50:15.028Z,75.21
2019-02-22T10:52:45.290Z,75.20
2019-02-22T10:55:15.656Z,74.94
2019-02-22T10:57:45.851Z,74.52
2019-02-22T11:00:16.256Z,74.29
2019-02-22T11:02:46.442Z,74.22
2019-02-22T11:05:16.594Z,73.96
2019-02-22T11:07:47.001Z,73.68
2019-02-22T11:10:21.473Z,73.56
2019-02-22T11:12:51.780Z,73.21
2019-02-22T11:15:22.018Z,72.84
2019-02-22T11:17:52.199Z,72.58
2019-02-22T11:20:22.532Z,72.27
2019-02-22T11:22:52.675Z,72.04
2019-02-22T11:25:23.029Z,71.92
2019-02-22T11:27:53.320Z,71.75
2019-02-22T11:30:23.489Z,71.51
2019-02-22T11:32:58.574Z,71.06
2019-02-22T11:35:28.857Z,70.69
2019-02-22T11:37:58.977Z,70.44
2019-02-22T11:40:29.583Z,70.40
2019-02-22T11:43:01.218Z,70.16
2019-02-22T11:45:34.759Z,69.99
2019-02-22T11:48:09.245Z,70.06
2019-02-22T11:50:37.153Z,69.27
2019-02-22T11:53:07.502Z,68.66
2019-02-22T11:55:37.884Z,68.72
2019-02-22T11:58:08.117Z,68.59
2019-02-22T12:00:38.446Z,68.73
2019-02-22T12:03:21.219Z,68.88
2019-02-22T12:05:40.679Z,69.21
2019-02-22T12:08:10.908Z,69.01
2019-02-22T12:10:41.111Z,68.76
2019-02-22T12:13:11.303Z,68.51
2019-02-22T12:15:41.608Z,67.01
2019-02-22T12:18:11.790Z,67.23
2019-02-22T12:20:42.076Z,67.70
2019-02-22T12:23:12.295Z,67.80
2019-02-22T12:25:44.568Z,67.66
2019-02-22T12:28:14.373Z,67.64
2019-02-22T12:30:44.539Z,67.60
2019-02-22T12:33:14.792Z,68.00
2019-02-22T12:35:46.251Z,68.25
2019-02-22T12:38:16.737Z,68.23
2019-02-22T12:40:46.808Z,68.09
2019-02-22T12:43:17.156Z,68.34
2019-02-22T12:45:47.475Z,68.55
2019-02-22T12:48:17.798Z,68.22
2019-02-22T12:50:47.959Z,67.94
2019-02-22T12:53:21.238Z,67.95
2019-02-22T12:55:51.538Z,67.65
2019-02-22T12:58:21.639Z,67.59
2019-02-22T13:00:51.906Z,67.73
2019-02-22T13:03:22.111Z,67.90
2019-02-22T13:05:52.348Z,67.97
2019-02-22T13:08:22.474Z,68.08
2019-02-22T13:10:52.704Z,68.12
2019-02-22T13:13:22.927Z,68.55
2019-02-22T13:15:53.070Z,68.77
2019-02-22T13:18:23.224Z,68.83
2019-02-22T13:20:53.379Z,68.88
2019-02-22T13:23:23.689Z,68.97
2019-02-22T13:25:53.861Z,69.01
2019-02-22T13:28:24.096Z,69.15
2019-02-22T13:30:54.338Z,69.43
2019-02-22T13:33:24.496Z,69.59
2019-02-22T13:35:54.736Z,69.67
2019-02-22T13:38:25.067Z,69.71
2019-02-22T13:40:55.162Z,69.93
2019-02-22T13:43:25.453Z,70.05
2019-02-22T13:45:55.557Z,70.20
2019-02-22T13:48:25.692Z,70.12
2019-02-22T13:50:55.931Z,70.13
2019-02-22T13:53:26.228Z,70.10
2019-02-22T13:55:56.455Z,69.91
2019-02-22T13:58:26.555Z,69.73
2019-02-22T14:00:56.763Z,69.67
2019-02-22T14:03:26.905Z,69.64
2019-02-22T14:05:57.172Z,69.78
2019-02-22T14:08:27.471Z,69.93
2019-02-22T14:10:57.781Z,70.06
2019-02-22T14:13:28.084Z,69.98
2019-02-22T14:15:58.313Z,69.98
2019-02-22T14:18:28.819Z,70.04
2019-02-22T14:21:01.218Z,70.21
2019-02-22T14:23:31.632Z,70.31
2019-02-22T14:26:01.917Z,70.25
2019-02-22T14:28:32.277Z,70.31
2019-02-22T14:31:02.770Z,70.49
2019-02-22T14:33:33.014Z,70.70
2019-02-22T14:36:04.802Z,70.57
2019-02-22T14:38:36.375Z,70.34
2019-02-22T14:41:10.152Z,70.25
2019-02-22T14:43:40.893Z,70.36
2019-02-22T14:46:11.314Z,70.24
2019-02-22T14:48:43.781Z,70.10
2019-02-22T14:51:15.271Z,70.04
2019-02-22T14:53:45.902Z,70.22
2019-02-22T14:56:16.570Z,70.27
2019-02-22T14:58:47.049Z,70.30
2019-02-22T15:01:17.738Z,70.50
2019-02-22T15:03:48.400Z,70.57
2019-02-22T15:06:19.063Z,70.78
2019-02-22T15:08:49.740Z,70.85
2019-02-22T15:11:20.362Z,70.94
2019-02-22T15:13:51.282Z,70.95
2019-02-22T15:16:43.515Z,70.79
2019-02-22T15:19:14.115Z,70.67
2019-02-22T15:21:44.665Z,70.70
2019-02-22T15:24:15.286Z,70.71
2019-02-22T15:26:46.617Z,70.68
2019-02-22T15:29:17.284Z,70.62
2019-02-22T15:31:48.085Z,70.79
2019-02-22T15:34:18.702Z,70.76
2019-02-22T15:36:50.640Z,70.80
2019-02-22T15:39:21.256Z,70.86
2019-02-22T15:41:51.761Z,70.89
2019-02-22T15:44:22.364Z,70.96
2019-02-22T15:46:53.951Z,71.13
2019-02-22T15:49:24.578Z,71.25
2019-02-22T15:51:55.000Z,71.39
2019-02-22T15:54:25.595Z,71.56
2019-02-22T15:56:56.309Z,71.75
2019-02-22T15:59:26.979Z,71.93
2019-02-22T16:01:57.674Z,72.00
2019-02-22T16:04:34.079Z,71.98
2019-02-22T16:07:04.674Z,72.01
2019-02-22T16:09:42.013Z,72.06
2019-02-22T16:12:22.847Z,72.00
2019-02-22T16:14:53.784Z,72.10
2019-02-22T16:17:26.538Z,72.25
2019-02-22T16:19:57.389Z,72.28
2019-02-22T16:22:29.875Z,72.29
2019-02-22T16:25:03.724Z,72.33
2019-02-22T16:27:36.038Z,72.45
2019-02-22T16:30:27.050Z,72.41
2019-02-22T16:33:03.688Z,72.38
2019-02-22T16:35:34.508Z,72.48
2019-02-22T16:38:10.327Z,71.18
2019-02-22T16:40:42.933Z,71.71
2019-02-22T16:43:16.955Z,71.80
2019-02-22T16:45:47.856Z,71.90
2019-02-22T16:48:19.653Z,71.98
2019-02-22T16:50:50.270Z,71.93
2019-02-22T16:53:20.701Z,72.00
2019-02-22T16:55:51.214Z,72.04
2019-02-22T16:58:21.792Z,72.15
2019-02-22T17:00:52.386Z,72.33
2019-02-22T17:03:23.111Z,72.45
2019-02-22T17:05:53.593Z,72.59
2019-02-22T17:08:24.181Z,72.69
2019-02-22T17:10:54.651Z,72.79
2019-02-22T17:13:25.147Z,72.91
2019-02-22T17:15:55.579Z,72.97
2019-02-22T17:18:25.918Z,72.99
2019-02-22T17:20:57.860Z,73.03
2019-02-22T17:23:29.552Z,73.08
2019-02-22T17:25:59.828Z,73.19
2019-02-22T17:28:32.640Z,73.27
2019-02-22T17:31:02.911Z,73.32
2019-02-22T17:33:33.165Z,73.42
2019-02-22T17:36:03.441Z,73.58
2019-02-22T17:38:33.853Z,73.72
2019-02-22T17:41:04.331Z,73.83
2019-02-22T17:43:34.594Z,73.96
2019-02-22T17:46:04.859Z,74.04
2019-02-22T17:48:35.139Z,74.03
2019-02-22T17:51:05.285Z,74.06
2019-02-22T17:53:35.802Z,74.15
2019-02-22T17:56:07.127Z,74.23
2019-02-22T17:58:37.398Z,74.28
2019-02-22T18:01:09.141Z,74.30
2019-02-22T18:03:39.396Z,74.26
2019-02-22T18:06:12.227Z,74.31
2019-02-22T18:08:44.118Z,74.42
2019-02-22T18:11:14.490Z,74.56
2019-02-22T18:13:44.582Z,74.64
2019-02-22T18:16:14.798Z,74.75
2019-02-22T18:18:45.091Z,74.83
2019-02-22T18:21:15.276Z,74.96
2019-02-22T18:23:45.528Z,75.07
2019-02-22T18:26:15.663Z,75.15
2019-02-22T18:28:45.872Z,75.26
2019-02-22T18:31:16.018Z,75.36
2019-02-22T18:33:46.251Z,75.41
2019-02-22T18:36:16.363Z,75.51
2019-02-22T18:38:46.517Z,75.64
2019-02-22T18:41:16.711Z,75.66
2019-02-22T18:43:46.954Z,75.75
2019-02-22T18:46:17.741Z,75.85
2019-02-22T18:48:48.372Z,75.98
2019-02-22T18:51:18.990Z,76.05
2019-02-22T18:53:49.515Z,76.06
2019-02-22T18:56:20.301Z,76.08
2019-02-22T18:58:52.153Z,76.13
2019-02-22T19:01:23.026Z,76.19
2019-02-22T19:03:53.707Z,76.27
2019-02-22T19:06:24.265Z,76.34
2019-02-22T19:08:54.871Z,76.36
2019-02-22T19:11:25.508Z,76.39
2019-02-22T19:13:56.017Z,76.47
2019-02-22T19:16:26.772Z,76.48
2019-02-22T19:18:57.496Z,76.53
2019-02-22T19:21:28.652Z,76.56
2019-02-22T19:24:00.134Z,76.55
2019-02-22T19:26:30.756Z,76.53
2019-02-22T19:31:26.699Z,76.59
2019-02-22T19:33:57.266Z,76.56
2019-02-22T19:36:27.862Z,76.58
2019-02-22T19:38:58.360Z,76.64
2019-02-22T19:41:28.803Z,76.65
2019-02-22T19:43:59.227Z,76.71
2019-02-22T19:46:29.822Z,76.72
2019-02-22T19:49:00.868Z,76.77
2019-02-22T19:51:31.420Z,76.80
2019-02-22T19:54:01.939Z,76.83
2019-02-22T19:56:32.426Z,76.85
2019-02-22T19:59:03.810Z,76.86
2019-02-22T20:01:34.441Z,76.86
2019-02-22T20:04:04.975Z,76.91
2019-02-22T20:06:35.608Z,76.97
2019-02-22T20:09:08.898Z,77.03
2019-02-22T20:11:39.441Z,77.03
2019-02-22T20:14:09.874Z,77.09
2019-02-22T20:16:40.468Z,77.11
2019-02-22T20:19:11.166Z,77.18
2019-02-22T20:21:41.650Z,77.27
2019-02-22T20:24:12.396Z,77.34
2019-02-22T20:26:42.973Z,77.38
2019-02-22T20:29:13.559Z,77.43
2019-02-22T20:31:43.987Z,77.45
2019-02-22T20:34:14.390Z,77.48
2019-02-22T20:36:45.001Z,77.50
2019-02-22T20:39:15.740Z,77.50
2019-02-22T20:41:46.175Z,77.51
2019-02-22T20:44:16.727Z,77.55
2019-02-22T20:46:47.357Z,77.54
2019-02-22T20:49:18.012Z,77.59
2019-02-22T20:51:48.564Z,77.60
2019-02-22T20:54:19.065Z,77.61
2019-02-22T20:56:49.656Z,77.67
2019-02-22T20:59:20.464Z,77.75
2019-02-22T21:01:51.204Z,77.78
2019-02-22T21:04:21.908Z,77.87
2019-02-22T21:06:52.452Z,77.92
2019-02-22T21:09:23.133Z,77.95
2019-02-22T21:11:53.761Z,77.98
2019-02-22T21:14:25.191Z,78.00
2019-02-22T21:16:55.812Z,78.01
2019-02-22T21:19:27.305Z,78.03
2019-02-22T21:21:57.783Z,78.09
2019-02-22T21:24:28.647Z,78.20
2019-02-22T21:26:59.224Z,78.36
2019-02-22T21:29:29.803Z,78.51
2019-02-22T21:32:00.333Z,78.63
2019-02-22T21:34:30.788Z,78.78
2019-02-22T21:37:01.301Z,78.81
2019-02-22T21:39:31.701Z,79.02
2019-02-22T21:42:02.071Z,79.23
2019-02-22T21:44:32.581Z,79.33
2019-02-22T21:47:03.118Z,79.43
2019-02-22T21:49:33.950Z,79.54
2019-02-22T21:52:04.567Z,79.62
2019-02-22T21:54:35.081Z,79.69
2019-02-22T21:57:06.579Z,79.76
2019-02-22T21:59:37.128Z,79.84
2019-02-22T22:02:07.616Z,79.93
2019-02-22T22:04:38.411Z,80.17
2019-02-22T22:07:08.944Z,80.26
2019-02-22T22:09:42.211Z,80.36
2019-02-22T22:12:12.661Z,80.34
2019-02-22T22:14:43.318Z,80.38
2019-02-22T22:17:13.966Z,80.38
2019-02-22T22:19:44.292Z,80.41
2019-02-22T22:22:14.563Z,80.44
2019-02-22T22:24:44.729Z,80.51
2019-02-22T22:27:14.841Z,80.59
2019-02-22T22:29:44.913Z,80.59
2019-02-22T22:32:15.089Z,80.63
2019-02-22T22:34:45.319Z,80.68
2019-02-22T22:37:15.543Z,80.71
2019-02-22T22:39:45.815Z,80.75
2019-02-22T22:42:15.958Z,80.78
2019-02-22T22:44:46.091Z,80.79
2019-02-22T22:47:16.272Z,80.79
2019-02-22T22:49:46.478Z,80.79
2019-02-22T22:52:16.568Z,80.80
2019-02-22T22:54:46.703Z,80.81
2019-02-22T22:57:16.872Z,80.80
2019-02-22T22:59:47.066Z,80.81
2019-02-22T23:02:17.297Z,80.84
2019-02-22T23:04:47.437Z,80.84
2019-02-22T23:07:17.712Z,80.90
2019-02-22T23:09:47.839Z,80.93
2019-02-22T23:12:17.931Z,80.94
2019-02-22T23:14:48.154Z,80.98
2019-02-22T23:17:18.296Z,80.96
2019-02-22T23:19:48.417Z,80.96
2019-02-22T23:22:18.579Z,80.96
2019-02-22T23:24:48.640Z,80.99
2019-02-22T23:27:18.820Z,81.05
2019-02-22T23:29:48.965Z,81.04
2019-02-22T23:32:19.039Z,81.06
2019-02-22T23:34:49.194Z,81.07
2019-02-22T23:37:19.332Z,81.10
2019-02-22T23:39:49.610Z,81.07
2019-02-22T23:42:19.793Z,81.08
2019-02-22T23:44:50.031Z,81.04
2019-02-22T23:47:20.123Z,81.07
2019-02-22T23:49:50.326Z,81.01
2019-02-22T23:52:20.560Z,80.99
2019-02-22T23:54:50.769Z,80.97
2019-02-22T23:57:20.838Z,80.95
2019-02-22T23:59:50.923Z,80.95
